sensor_id;sensor_type;location;lat;lon;timestamp;P1;durP1;ratioP1;P2;durP2;ratioP2
2257;SDS011;1136;51.574;7.706;2022-08-14T00:01:03;8.47;;;7.97;;
2257;SDS011;1136;51.574;7.706;2022-08-14T00:03:36;7.97;;;7.13;;
2257;SDS011;1136;51.574;7.706;2022-08-14T00:06:06;7.90;;;7.30;;
2257;SDS011;1136;51.574;7.706;2022-08-14T00:08:53;7.70;;;6.90;;
2257;SDS011;1136;51.574;7.706;2022-08-14T00:11:24;8.40;;;7.60;;
2257;SDS011;1136;51.574;7.706;2022-08-14T00:13:56;7.27;;;6.77;;
2257;SDS011;1136;51.574;7.706;2022-08-14T00:16:23;8.27;;;7.37;;
2257;SDS011;1136;51.574;7.706;2022-08-14T00:19:10;8.37;;;7.70;;
2257;SDS011;1136;51.574;7.706;2022-08-14T00:21:45;11.80;;;8.30;;
2257;SDS011;1136;51.574;7.706;2022-08-14T00:24:12;8.57;;;7.87;;
2257;SDS011;1136;51.574;7.706;2022-08-14T00:26:57;8.07;;;7.60;;
2257;SDS011;1136;51.574;7.706;2022-08-14T00:29:28;9.30;;;8.30;;
2257;SDS011;1136;51.574;7.706;2022-08-14T00:32:06;8.80;;;7.87;;
2257;SDS011;1136;51.574;7.706;2022-08-14T00:34:53;8.00;;;7.40;;
2257;SDS011;1136;51.574;7.706;2022-08-14T00:37:21;9.30;;;7.80;;
2257;SDS011;1136;51.574;7.706;2022-08-14T00:39:48;9.60;;;7.40;;
2257;SDS011;1136;51.574;7.706;2022-08-14T00:42:18;7.67;;;7.10;;
2257;SDS011;1136;51.574;7.706;2022-08-14T00:45:06;8.93;;;8.17;;
2257;SDS011;1136;51.574;7.706;2022-08-14T00:47:40;9.07;;;8.37;;
2257;SDS011;1136;51.574;7.706;2022-08-14T00:50:11;8.93;;;8.13;;
2257;SDS011;1136;51.574;7.706;2022-08-14T00:52:47;8.97;;;8.07;;
2257;SDS011;1136;51.574;7.706;2022-08-14T00:55:16;10.00;;;9.10;;
2257;SDS011;1136;51.574;7.706;2022-08-14T00:57:45;9.63;;;8.63;;
2257;SDS011;1136;51.574;7.706;2022-08-14T01:00:32;10.43;;;9.43;;
2257;SDS011;1136;51.574;7.706;2022-08-14T01:03:16;10.10;;;9.30;;
2257;SDS011;1136;51.574;7.706;2022-08-14T01:05:45;9.93;;;8.93;;
2257;SDS011;1136;51.574;7.706;2022-08-14T01:08:22;9.60;;;8.77;;
2257;SDS011;1136;51.574;7.706;2022-08-14T01:11:11;10.17;;;8.60;;
2257;SDS011;1136;51.574;7.706;2022-08-14T01:13:45;10.13;;;9.10;;
2257;SDS011;1136;51.574;7.706;2022-08-14T01:16:26;10.37;;;9.30;;
2257;SDS011;1136;51.574;7.706;2022-08-14T01:18:56;9.60;;;8.83;;
2257;SDS011;1136;51.574;7.706;2022-08-14T01:22:03;10.17;;;9.27;;
2257;SDS011;1136;51.574;7.706;2022-08-14T01:24:37;9.17;;;8.47;;
2257;SDS011;1136;51.574;7.706;2022-08-14T01:27:04;10.23;;;9.53;;
2257;SDS011;1136;51.574;7.706;2022-08-14T01:29:32;9.80;;;9.00;;
2257;SDS011;1136;51.574;7.706;2022-08-14T01:32:23;9.70;;;9.00;;
2257;SDS011;1136;51.574;7.706;2022-08-14T01:34:50;11.20;;;10.10;;
2257;SDS011;1136;51.574;7.706;2022-08-14T01:37:42;9.43;;;8.73;;
2257;SDS011;1136;51.574;7.706;2022-08-14T01:40:22;10.67;;;9.97;;
2257;SDS011;1136;51.574;7.706;2022-08-14T01:43:02;10.70;;;9.80;;
2257;SDS011;1136;51.574;7.706;2022-08-14T01:45:46;10.50;;;9.70;;
2257;SDS011;1136;51.574;7.706;2022-08-14T01:48:31;10.37;;;9.57;;
2257;SDS011;1136;51.574;7.706;2022-08-14T01:50:58;10.67;;;9.93;;
2257;SDS011;1136;51.574;7.706;2022-08-14T01:53:28;10.60;;;9.43;;
2257;SDS011;1136;51.574;7.706;2022-08-14T01:56:01;11.27;;;10.33;;
2257;SDS011;1136;51.574;7.706;2022-08-14T01:58:37;11.37;;;10.47;;
2257;SDS011;1136;51.574;7.706;2022-08-14T02:01:23;11.17;;;10.27;;
2257;SDS011;1136;51.574;7.706;2022-08-14T02:03:53;12.67;;;11.73;;
2257;SDS011;1136;51.574;7.706;2022-08-14T02:06:22;10.87;;;9.90;;
2257;SDS011;1136;51.574;7.706;2022-08-14T02:08:58;10.83;;;9.97;;
2257;SDS011;1136;51.574;7.706;2022-08-14T02:11:44;11.83;;;10.83;;
2257;SDS011;1136;51.574;7.706;2022-08-14T02:14:12;11.20;;;10.20;;
2257;SDS011;1136;51.574;7.706;2022-08-14T02:16:44;11.50;;;10.67;;
2257;SDS011;1136;51.574;7.706;2022-08-14T02:19:15;11.40;;;10.60;;
2257;SDS011;1136;51.574;7.706;2022-08-14T02:21:44;13.50;;;11.07;;
2257;SDS011;1136;51.574;7.706;2022-08-14T02:24:16;11.40;;;10.60;;
2257;SDS011;1136;51.574;7.706;2022-08-14T02:27:06;11.97;;;10.97;;
2257;SDS011;1136;51.574;7.706;2022-08-14T02:29:53;12.70;;;11.60;;
2257;SDS011;1136;51.574;7.706;2022-08-14T02:32:26;12.10;;;11.10;;
2257;SDS011;1136;51.574;7.706;2022-08-14T02:35:01;11.90;;;10.70;;
2257;SDS011;1136;51.574;7.706;2022-08-14T02:37:29;12.03;;;11.00;;
2257;SDS011;1136;51.574;7.706;2022-08-14T02:40:13;12.33;;;11.43;;
2257;SDS011;1136;51.574;7.706;2022-08-14T02:42:42;11.57;;;10.67;;
2257;SDS011;1136;51.574;7.706;2022-08-14T02:45:23;13.43;;;12.43;;
2257;SDS011;1136;51.574;7.706;2022-08-14T02:48:10;13.67;;;11.23;;
2257;SDS011;1136;51.574;7.706;2022-08-14T02:50:57;11.90;;;10.90;;
2257;SDS011;1136;51.574;7.706;2022-08-14T02:53:29;13.60;;;11.30;;
2257;SDS011;1136;51.574;7.706;2022-08-14T02:55:58;12.07;;;11.17;;
2257;SDS011;1136;51.574;7.706;2022-08-14T02:58:47;12.87;;;11.80;;
2257;SDS011;1136;51.574;7.706;2022-08-14T03:01:19;12.87;;;11.53;;
2257;SDS011;1136;51.574;7.706;2022-08-14T03:03:51;12.67;;;11.77;;
2257;SDS011;1136;51.574;7.706;2022-08-14T03:06:18;13.97;;;12.70;;
2257;SDS011;1136;51.574;7.706;2022-08-14T03:09:05;12.50;;;11.60;;
2257;SDS011;1136;51.574;7.706;2022-08-14T03:11:33;12.90;;;11.90;;
2257;SDS011;1136;51.574;7.706;2022-08-14T03:14:00;12.50;;;11.60;;
2257;SDS011;1136;51.574;7.706;2022-08-14T03:16:27;12.73;;;11.73;;
2257;SDS011;1136;51.574;7.706;2022-08-14T03:19:04;12.30;;;11.40;;
2257;SDS011;1136;51.574;7.706;2022-08-14T03:21:32;11.93;;;10.73;;
2257;SDS011;1136;51.574;7.706;2022-08-14T03:24:00;13.00;;;11.43;;
2257;SDS011;1136;51.574;7.706;2022-08-14T03:26:46;12.37;;;11.10;;
2257;SDS011;1136;51.574;7.706;2022-08-14T03:29:21;12.50;;;11.60;;
2257;SDS011;1136;51.574;7.706;2022-08-14T03:31:51;12.97;;;11.97;;
2257;SDS011;1136;51.574;7.706;2022-08-14T03:34:18;12.53;;;11.47;;
2257;SDS011;1136;51.574;7.706;2022-08-14T03:37:07;12.70;;;11.60;;
2257;SDS011;1136;51.574;7.706;2022-08-14T03:39:58;12.50;;;11.60;;
2257;SDS011;1136;51.574;7.706;2022-08-14T03:42:25;12.93;;;11.93;;
2257;SDS011;1136;51.574;7.706;2022-08-14T03:45:01;13.10;;;12.20;;
2257;SDS011;1136;51.574;7.706;2022-08-14T03:47:49;13.17;;;11.93;;
2257;SDS011;1136;51.574;7.706;2022-08-14T03:50:24;13.50;;;12.40;;
2257;SDS011;1136;51.574;7.706;2022-08-14T03:53:00;14.23;;;13.00;;
2257;SDS011;1136;51.574;7.706;2022-08-14T03:55:28;12.73;;;11.73;;
2257;SDS011;1136;51.574;7.706;2022-08-14T03:57:56;13.77;;;12.67;;
2257;SDS011;1136;51.574;7.706;2022-08-14T04:00:23;12.67;;;11.77;;
2257;SDS011;1136;51.574;7.706;2022-08-14T04:03:09;14.20;;;13.00;;
2257;SDS011;1136;51.574;7.706;2022-08-14T04:05:39;13.23;;;12.33;;
2257;SDS011;1136;51.574;7.706;2022-08-14T04:08:13;14.37;;;13.30;;
2257;SDS011;1136;51.574;7.706;2022-08-14T04:10:56;12.93;;;11.70;;
2257;SDS011;1136;51.574;7.706;2022-08-14T04:13:26;14.30;;;12.90;;
2257;SDS011;1136;51.574;7.706;2022-08-14T04:15:59;13.73;;;12.60;;
2257;SDS011;1136;51.574;7.706;2022-08-14T04:18:38;14.27;;;12.90;;
2257;SDS011;1136;51.574;7.706;2022-08-14T04:21:07;14.17;;;13.07;;
2257;SDS011;1136;51.574;7.706;2022-08-14T04:23:36;13.73;;;12.67;;
2257;SDS011;1136;51.574;7.706;2022-08-14T04:26:05;13.43;;;12.27;;
2257;SDS011;1136;51.574;7.706;2022-08-14T04:28:41;13.90;;;12.90;;
2257;SDS011;1136;51.574;7.706;2022-08-14T04:31:28;13.77;;;12.57;;
2257;SDS011;1136;51.574;7.706;2022-08-14T04:34:15;14.50;;;13.30;;
2257;SDS011;1136;51.574;7.706;2022-08-14T04:36:52;13.70;;;12.67;;
2257;SDS011;1136;51.574;7.706;2022-08-14T04:39:38;14.03;;;12.90;;
2257;SDS011;1136;51.574;7.706;2022-08-14T04:42:24;14.00;;;12.90;;
2257;SDS011;1136;51.574;7.706;2022-08-14T04:45:17;15.00;;;13.40;;
2257;SDS011;1136;51.574;7.706;2022-08-14T04:47:49;13.17;;;12.07;;
2257;SDS011;1136;51.574;7.706;2022-08-14T04:50:35;14.67;;;13.47;;
2257;SDS011;1136;51.574;7.706;2022-08-14T04:53:13;15.10;;;13.90;;
2257;SDS011;1136;51.574;7.706;2022-08-14T04:55:44;16.73;;;13.47;;
2257;SDS011;1136;51.574;7.706;2022-08-14T04:58:17;15.07;;;13.67;;
2257;SDS011;1136;51.574;7.706;2022-08-14T05:00:58;13.97;;;12.57;;
2257;SDS011;1136;51.574;7.706;2022-08-14T05:03:26;13.70;;;12.60;;
2257;SDS011;1136;51.574;7.706;2022-08-14T05:05:55;14.57;;;12.90;;
2257;SDS011;1136;51.574;7.706;2022-08-14T05:08:24;13.63;;;12.63;;
2257;SDS011;1136;51.574;7.706;2022-08-14T05:11:11;13.70;;;12.40;;
2257;SDS011;1136;51.574;7.706;2022-08-14T05:13:39;13.60;;;12.50;;
2257;SDS011;1136;51.574;7.706;2022-08-14T05:16:26;13.77;;;12.77;;
2257;SDS011;1136;51.574;7.706;2022-08-14T05:18:54;15.03;;;13.73;;
2257;SDS011;1136;51.574;7.706;2022-08-14T05:21:41;14.00;;;12.20;;
2257;SDS011;1136;51.574;7.706;2022-08-14T05:24:27;15.60;;;12.97;;
2257;SDS011;1136;51.574;7.706;2022-08-14T05:26:54;14.17;;;12.97;;
2257;SDS011;1136;51.574;7.706;2022-08-14T05:29:21;15.23;;;14.03;;
2257;SDS011;1136;51.574;7.706;2022-08-14T05:31:48;13.53;;;12.53;;
2257;SDS011;1136;51.574;7.706;2022-08-14T05:34:22;13.50;;;12.37;;
2257;SDS011;1136;51.574;7.706;2022-08-14T05:36:57;14.47;;;13.37;;
2257;SDS011;1136;51.574;7.706;2022-08-14T05:39:28;14.87;;;13.77;;
2257;SDS011;1136;51.574;7.706;2022-08-14T05:41:56;14.90;;;13.60;;
2257;SDS011;1136;51.574;7.706;2022-08-14T05:44:23;16.10;;;14.90;;
2257;SDS011;1136;51.574;7.706;2022-08-14T05:46:55;15.67;;;14.30;;
2257;SDS011;1136;51.574;7.706;2022-08-14T05:49:22;15.43;;;14.03;;
2257;SDS011;1136;51.574;7.706;2022-08-14T05:51:59;15.00;;;13.73;;
2257;SDS011;1136;51.574;7.706;2022-08-14T05:54:35;14.43;;;13.33;;
2257;SDS011;1136;51.574;7.706;2022-08-14T05:57:02;15.00;;;13.70;;
2257;SDS011;1136;51.574;7.706;2022-08-14T05:59:30;14.30;;;13.13;;
2257;SDS011;1136;51.574;7.706;2022-08-14T06:02:04;14.63;;;13.37;;
2257;SDS011;1136;51.574;7.706;2022-08-14T06:04:32;15.87;;;13.40;;
2257;SDS011;1136;51.574;7.706;2022-08-14T06:06:58;14.90;;;13.80;;
2257;SDS011;1136;51.574;7.706;2022-08-14T06:09:25;14.17;;;13.10;;
2257;SDS011;1136;51.574;7.706;2022-08-14T06:11:51;16.93;;;13.73;;
2257;SDS011;1136;51.574;7.706;2022-08-14T06:14:18;15.80;;;14.50;;
2257;SDS011;1136;51.574;7.706;2022-08-14T06:16:52;13.07;;;12.07;;
2257;SDS011;1136;51.574;7.706;2022-08-14T06:19:19;14.00;;;12.77;;
2257;SDS011;1136;51.574;7.706;2022-08-14T06:21:48;13.83;;;12.83;;
2257;SDS011;1136;51.574;7.706;2022-08-14T06:24:24;14.67;;;13.30;;
2257;SDS011;1136;51.574;7.706;2022-08-14T06:26:52;12.90;;;11.80;;
2257;SDS011;1136;51.574;7.706;2022-08-14T06:29:22;14.97;;;13.80;;
2257;SDS011;1136;51.574;7.706;2022-08-14T06:31:49;14.73;;;13.63;;
2257;SDS011;1136;51.574;7.706;2022-08-14T06:34:25;12.60;;;11.70;;
2257;SDS011;1136;51.574;7.706;2022-08-14T06:37:12;14.23;;;13.13;;
2257;SDS011;1136;51.574;7.706;2022-08-14T06:39:42;13.40;;;12.40;;
2257;SDS011;1136;51.574;7.706;2022-08-14T06:42:09;15.17;;;14.07;;
2257;SDS011;1136;51.574;7.706;2022-08-14T06:44:56;13.50;;;12.33;;
2257;SDS011;1136;51.574;7.706;2022-08-14T06:47:23;14.50;;;13.10;;
2257;SDS011;1136;51.574;7.706;2022-08-14T06:49:50;14.33;;;13.33;;
2257;SDS011;1136;51.574;7.706;2022-08-14T06:52:23;15.07;;;13.77;;
2257;SDS011;1136;51.574;7.706;2022-08-14T06:54:50;14.20;;;13.10;;
2257;SDS011;1136;51.574;7.706;2022-08-14T06:57:17;13.83;;;12.80;;
2257;SDS011;1136;51.574;7.706;2022-08-14T06:59:46;12.40;;;11.50;;
2257;SDS011;1136;51.574;7.706;2022-08-14T07:02:15;12.13;;;11.13;;
2257;SDS011;1136;51.574;7.706;2022-08-14T07:05:01;13.97;;;12.50;;
2257;SDS011;1136;51.574;7.706;2022-08-14T07:07:50;11.83;;;10.90;;
2257;SDS011;1136;51.574;7.706;2022-08-14T07:10:17;14.73;;;13.27;;
2257;SDS011;1136;51.574;7.706;2022-08-14T07:12:44;14.07;;;12.97;;
2257;SDS011;1136;51.574;7.706;2022-08-14T07:15:28;13.47;;;12.40;;
2257;SDS011;1136;51.574;7.706;2022-08-14T07:17:57;14.10;;;12.80;;
2257;SDS011;1136;51.574;7.706;2022-08-14T07:20:25;13.93;;;12.93;;
2257;SDS011;1136;51.574;7.706;2022-08-14T07:22:57;13.80;;;12.57;;
2257;SDS011;1136;51.574;7.706;2022-08-14T07:25:34;12.90;;;11.53;;
2257;SDS011;1136;51.574;7.706;2022-08-14T07:28:16;12.43;;;11.40;;
2257;SDS011;1136;51.574;7.706;2022-08-14T07:30:49;12.20;;;11.20;;
2257;SDS011;1136;51.574;7.706;2022-08-14T07:33:18;12.10;;;11.20;;
2257;SDS011;1136;51.574;7.706;2022-08-14T07:35:49;11.80;;;10.80;;
2257;SDS011;1136;51.574;7.706;2022-08-14T07:38:24;12.80;;;11.80;;
2257;SDS011;1136;51.574;7.706;2022-08-14T07:41:01;11.57;;;10.67;;
2257;SDS011;1136;51.574;7.706;2022-08-14T07:43:27;12.03;;;11.03;;
2257;SDS011;1136;51.574;7.706;2022-08-14T07:45:54;12.20;;;11.40;;
2257;SDS011;1136;51.574;7.706;2022-08-14T07:48:22;12.37;;;11.30;;
2257;SDS011;1136;51.574;7.706;2022-08-14T07:50:50;12.00;;;11.10;;
2257;SDS011;1136;51.574;7.706;2022-08-14T07:53:20;11.70;;;10.83;;
2257;SDS011;1136;51.574;7.706;2022-08-14T07:55:47;11.93;;;11.03;;
2257;SDS011;1136;51.574;7.706;2022-08-14T07:58:34;13.70;;;12.50;;
2257;SDS011;1136;51.574;7.706;2022-08-14T08:01:17;11.63;;;10.83;;
2257;SDS011;1136;51.574;7.706;2022-08-14T08:03:47;12.27;;;11.47;;
2257;SDS011;1136;51.574;7.706;2022-08-14T08:06:18;12.10;;;11.20;;
2257;SDS011;1136;51.574;7.706;2022-08-14T08:08:45;12.23;;;11.23;;
2257;SDS011;1136;51.574;7.706;2022-08-14T08:11:32;12.20;;;11.20;;
2257;SDS011;1136;51.574;7.706;2022-08-14T08:14:03;11.67;;;10.67;;
2257;SDS011;1136;51.574;7.706;2022-08-14T08:16:43;11.50;;;10.70;;
2257;SDS011;1136;51.574;7.706;2022-08-14T08:19:11;11.60;;;10.80;;
2257;SDS011;1136;51.574;7.706;2022-08-14T08:21:39;11.70;;;10.90;;
2257;SDS011;1136;51.574;7.706;2022-08-14T08:24:10;11.23;;;10.40;;
2257;SDS011;1136;51.574;7.706;2022-08-14T08:26:43;11.50;;;10.60;;
2257;SDS011;1136;51.574;7.706;2022-08-14T08:29:17;11.40;;;10.60;;
2257;SDS011;1136;51.574;7.706;2022-08-14T08:31:53;11.77;;;10.97;;
2257;SDS011;1136;51.574;7.706;2022-08-14T08:34:20;11.10;;;10.40;;
2257;SDS011;1136;51.574;7.706;2022-08-14T08:36:49;11.47;;;10.67;;
2257;SDS011;1136;51.574;7.706;2022-08-14T08:39:16;10.30;;;9.70;;
2257;SDS011;1136;51.574;7.706;2022-08-14T08:41:48;11.60;;;10.60;;
2257;SDS011;1136;51.574;7.706;2022-08-14T08:44:19;11.90;;;10.90;;
2257;SDS011;1136;51.574;7.706;2022-08-14T08:46:59;12.90;;;10.60;;
2257;SDS011;1136;51.574;7.706;2022-08-14T08:49:38;10.97;;;9.87;;
2257;SDS011;1136;51.574;7.706;2022-08-14T08:52:18;11.30;;;10.50;;
2257;SDS011;1136;51.574;7.706;2022-08-14T08:54:54;10.80;;;10.00;;
2257;SDS011;1136;51.574;7.706;2022-08-14T08:57:21;10.30;;;9.50;;
2257;SDS011;1136;51.574;7.706;2022-08-14T08:59:50;11.30;;;10.20;;
2257;SDS011;1136;51.574;7.706;2022-08-14T09:02:20;11.90;;;11.17;;
2257;SDS011;1136;51.574;7.706;2022-08-14T09:04:51;11.87;;;11.07;;
2257;SDS011;1136;51.574;7.706;2022-08-14T09:07:27;11.30;;;10.50;;
2257;SDS011;1136;51.574;7.706;2022-08-14T09:09:56;10.30;;;9.60;;
2257;SDS011;1136;51.574;7.706;2022-08-14T09:12:28;11.47;;;10.67;;
2257;SDS011;1136;51.574;7.706;2022-08-14T09:15:12;9.87;;;9.27;;
2257;SDS011;1136;51.574;7.706;2022-08-14T09:17:39;10.83;;;10.13;;
2257;SDS011;1136;51.574;7.706;2022-08-14T09:20:08;10.13;;;9.53;;
2257;SDS011;1136;51.574;7.706;2022-08-14T09:22:38;10.00;;;9.33;;
2257;SDS011;1136;51.574;7.706;2022-08-14T09:25:17;9.97;;;9.33;;
2257;SDS011;1136;51.574;7.706;2022-08-14T09:27:45;9.43;;;8.83;;
2257;SDS011;1136;51.574;7.706;2022-08-14T09:30:12;10.10;;;9.50;;
2257;SDS011;1136;51.574;7.706;2022-08-14T09:44:19;12.10;;;11.40;;
2257;SDS011;1136;51.574;7.706;2022-08-14T09:47:08;8.90;;;8.37;;
2257;SDS011;1136;51.574;7.706;2022-08-14T09:49:40;9.47;;;8.87;;
2257;SDS011;1136;51.574;7.706;2022-08-14T09:52:19;8.17;;;7.77;;
2257;SDS011;1136;51.574;7.706;2022-08-14T09:54:58;8.17;;;7.63;;
2257;SDS011;1136;51.574;7.706;2022-08-14T09:57:27;8.57;;;8.07;;
2257;SDS011;1136;51.574;7.706;2022-08-14T09:59:55;9.55;;;8.95;;
2257;SDS011;1136;51.574;7.706;2022-08-14T10:02:33;9.25;;;8.75;;
2257;SDS011;1136;51.574;7.706;2022-08-14T10:07:29;7.78;;;7.47;;
2257;SDS011;1136;51.574;7.706;2022-08-14T10:09:56;7.97;;;7.63;;
2257;SDS011;1136;51.574;7.706;2022-08-14T10:12:43;9.18;;;8.65;;
2257;SDS011;1136;51.574;7.706;2022-08-14T10:15:15;8.00;;;7.60;;
2257;SDS011;1136;51.574;7.706;2022-08-14T10:17:46;8.82;;;8.15;;
2257;SDS011;1136;51.574;7.706;2022-08-14T10:20:18;8.23;;;7.82;;
2257;SDS011;1136;51.574;7.706;2022-08-14T10:23:08;7.53;;;7.13;;
2257;SDS011;1136;51.574;7.706;2022-08-14T10:25:45;8.05;;;7.55;;
2257;SDS011;1136;51.574;7.706;2022-08-14T10:28:16;7.22;;;6.88;;
2257;SDS011;1136;51.574;7.706;2022-08-14T10:31:17;10.32;;;9.60;;
2257;SDS011;1136;51.574;7.706;2022-08-14T10:33:58;8.55;;;8.15;;
2257;SDS011;1136;51.574;7.706;2022-08-14T10:36:40;8.80;;;8.30;;
2257;SDS011;1136;51.574;7.706;2022-08-14T10:41:48;8.05;;;7.75;;
2257;SDS011;1136;51.574;7.706;2022-08-14T10:44:22;8.32;;;7.85;;
2257;SDS011;1136;51.574;7.706;2022-08-14T10:46:54;8.98;;;8.50;;
2257;SDS011;1136;51.574;7.706;2022-08-14T10:49:54;9.20;;;8.70;;
2257;SDS011;1136;51.574;7.706;2022-08-14T10:52:26;8.30;;;7.90;;
2257;SDS011;1136;51.574;7.706;2022-08-14T10:55:08;8.35;;;7.95;;
2257;SDS011;1136;51.574;7.706;2022-08-14T10:57:49;7.70;;;7.40;;
2257;SDS011;1136;51.574;7.706;2022-08-14T11:00:20;8.57;;;8.07;;
2257;SDS011;1136;51.574;7.706;2022-08-14T11:03:08;8.60;;;8.20;;
2257;SDS011;1136;51.574;7.706;2022-08-14T11:05:46;8.07;;;7.57;;
2257;SDS011;1136;51.574;7.706;2022-08-14T11:08:31;8.43;;;7.93;;
2257;SDS011;1136;51.574;7.706;2022-08-14T11:10:59;8.10;;;7.80;;
2257;SDS011;1136;51.574;7.706;2022-08-14T11:13:34;8.88;;;8.40;;
2257;SDS011;1136;51.574;7.706;2022-08-14T11:16:03;8.18;;;7.78;;
2257;SDS011;1136;51.574;7.706;2022-08-14T11:18:32;8.18;;;7.85;;
2257;SDS011;1136;51.574;7.706;2022-08-14T11:21:05;8.38;;;7.97;;
2257;SDS011;1136;51.574;7.706;2022-08-14T11:23:35;8.90;;;8.32;;
2257;SDS011;1136;51.574;7.706;2022-08-14T11:26:07;8.48;;;8.18;;
2257;SDS011;1136;51.574;7.706;2022-08-14T11:28:40;9.35;;;8.95;;
2257;SDS011;1136;51.574;7.706;2022-08-14T11:31:14;8.32;;;7.82;;
2257;SDS011;1136;51.574;7.706;2022-08-14T11:33:51;8.57;;;8.18;;
2257;SDS011;1136;51.574;7.706;2022-08-14T11:36:21;8.38;;;7.97;;
2257;SDS011;1136;51.574;7.706;2022-08-14T11:39:22;7.67;;;6.83;;
2257;SDS011;1136;51.574;7.706;2022-08-14T11:42:03;7.90;;;7.37;;
2257;SDS011;1136;51.574;7.706;2022-08-14T11:44:51;8.57;;;8.18;;
2257;SDS011;1136;51.574;7.706;2022-08-14T11:47:24;7.40;;;7.10;;
2257;SDS011;1136;51.574;7.706;2022-08-14T11:49:51;8.80;;;8.00;;
2257;SDS011;1136;51.574;7.706;2022-08-14T11:52:19;7.82;;;7.53;;
2257;SDS011;1136;51.574;7.706;2022-08-14T11:54:55;7.75;;;7.45;;
2257;SDS011;1136;51.574;7.706;2022-08-14T11:57:23;8.35;;;7.97;;
2257;SDS011;1136;51.574;7.706;2022-08-14T11:59:59;8.18;;;7.88;;
2257;SDS011;1136;51.574;7.706;2022-08-14T12:02:28;8.02;;;7.65;;
2257;SDS011;1136;51.574;7.706;2022-08-14T12:05:15;7.00;;;6.70;;
2257;SDS011;1136;51.574;7.706;2022-08-14T12:07:49;7.15;;;6.85;;
2257;SDS011;1136;51.574;7.706;2022-08-14T12:10:16;7.68;;;7.28;;
2257;SDS011;1136;51.574;7.706;2022-08-14T12:15:55;8.77;;;8.38;;
2257;SDS011;1136;51.574;7.706;2022-08-14T12:18:30;7.60;;;7.20;;
2257;SDS011;1136;51.574;7.706;2022-08-14T12:26:55;6.97;;;6.57;;
2257;SDS011;1136;51.574;7.706;2022-08-14T12:29:24;7.63;;;6.97;;
2257;SDS011;1136;51.574;7.706;2022-08-14T12:31:57;7.30;;;6.90;;
2257;SDS011;1136;51.574;7.706;2022-08-14T12:34:29;6.87;;;6.57;;
2257;SDS011;1136;51.574;7.706;2022-08-14T12:37:07;8.00;;;7.50;;
2257;SDS011;1136;51.574;7.706;2022-08-14T12:39:37;6.80;;;6.43;;
2257;SDS011;1136;51.574;7.706;2022-08-14T12:42:05;7.93;;;7.53;;
2257;SDS011;1136;51.574;7.706;2022-08-14T12:44:33;7.20;;;6.80;;
2257;SDS011;1136;51.574;7.706;2022-08-14T12:47:09;7.30;;;6.70;;
2257;SDS011;1136;51.574;7.706;2022-08-14T12:49:49;7.00;;;6.70;;
2257;SDS011;1136;51.574;7.706;2022-08-14T12:55:20;7.20;;;6.60;;
2257;SDS011;1136;51.574;7.706;2022-08-14T12:57:47;6.43;;;6.13;;
2257;SDS011;1136;51.574;7.706;2022-08-14T13:00:20;7.00;;;6.47;;
2257;SDS011;1136;51.574;7.706;2022-08-14T13:02:51;7.70;;;7.10;;
2257;SDS011;1136;51.574;7.706;2022-08-14T13:05:25;7.23;;;6.83;;
2257;SDS011;1136;51.574;7.706;2022-08-14T13:07:58;7.80;;;7.40;;
2257;SDS011;1136;51.574;7.706;2022-08-14T13:10:30;6.47;;;6.17;;
2257;SDS011;1136;51.574;7.706;2022-08-14T13:13:16;7.03;;;6.63;;
2257;SDS011;1136;51.574;7.706;2022-08-14T13:15:45;7.50;;;6.80;;
2257;SDS011;1136;51.574;7.706;2022-08-14T13:18:22;7.53;;;6.97;;
2257;SDS011;1136;51.574;7.706;2022-08-14T13:20:52;7.37;;;6.90;;
2257;SDS011;1136;51.574;7.706;2022-08-14T13:23:29;6.10;;;5.80;;
2257;SDS011;1136;51.574;7.706;2022-08-14T13:26:01;7.53;;;6.93;;
2257;SDS011;1136;51.574;7.706;2022-08-14T13:28:28;6.40;;;6.10;;
2257;SDS011;1136;51.574;7.706;2022-08-14T13:31:00;6.63;;;6.20;;
2257;SDS011;1136;51.574;7.706;2022-08-14T13:33:36;6.90;;;6.30;;
2257;SDS011;1136;51.574;7.706;2022-08-14T13:36:06;7.37;;;6.97;;
2257;SDS011;1136;51.574;7.706;2022-08-14T13:38:33;7.43;;;6.93;;
2257;SDS011;1136;51.574;7.706;2022-08-14T13:41:00;7.20;;;6.60;;
2257;SDS011;1136;51.574;7.706;2022-08-14T13:43:28;6.33;;;6.03;;
2257;SDS011;1136;51.574;7.706;2022-08-14T13:46:02;6.27;;;5.87;;
2257;SDS011;1136;51.574;7.706;2022-08-14T13:48:29;7.37;;;6.97;;
2257;SDS011;1136;51.574;7.706;2022-08-14T13:51:02;6.67;;;6.10;;
2257;SDS011;1136;51.574;7.706;2022-08-14T13:53:38;6.57;;;6.20;;
2257;SDS011;1136;51.574;7.706;2022-08-14T13:56:29;6.70;;;6.20;;
2257;SDS011;1136;51.574;7.706;2022-08-14T13:59:02;7.03;;;6.63;;
2257;SDS011;1136;51.574;7.706;2022-08-14T14:01:29;6.57;;;6.17;;
2257;SDS011;1136;51.574;7.706;2022-08-14T14:04:12;6.60;;;6.30;;
2257;SDS011;1136;51.574;7.706;2022-08-14T14:06:45;5.80;;;5.60;;
2257;SDS011;1136;51.574;7.706;2022-08-14T14:09:14;6.00;;;5.70;;
2257;SDS011;1136;51.574;7.706;2022-08-14T14:11:45;6.90;;;6.30;;
2257;SDS011;1136;51.574;7.706;2022-08-14T14:14:18;6.77;;;6.40;;
2257;SDS011;1136;51.574;7.706;2022-08-14T14:17:04;6.60;;;6.30;;
2257;SDS011;1136;51.574;7.706;2022-08-14T14:19:32;7.60;;;7.20;;
2257;SDS011;1136;51.574;7.706;2022-08-14T14:22:06;6.30;;;5.80;;
2257;SDS011;1136;51.574;7.706;2022-08-14T14:24:35;6.07;;;5.80;;
2257;SDS011;1136;51.574;7.706;2022-08-14T14:27:09;7.63;;;5.73;;
2257;SDS011;1136;51.574;7.706;2022-08-14T14:29:57;5.70;;;5.40;;
2257;SDS011;1136;51.574;7.706;2022-08-14T14:32:29;6.47;;;6.17;;
2257;SDS011;1136;51.574;7.706;2022-08-14T14:34:58;6.03;;;5.73;;
2257;SDS011;1136;51.574;7.706;2022-08-14T14:37:28;6.30;;;5.90;;
2257;SDS011;1136;51.574;7.706;2022-08-14T14:39:56;5.77;;;5.47;;
2257;SDS011;1136;51.574;7.706;2022-08-14T14:42:47;5.57;;;5.17;;
2257;SDS011;1136;51.574;7.706;2022-08-14T14:45:21;6.30;;;6.00;;
2257;SDS011;1136;51.574;7.706;2022-08-14T14:47:52;6.43;;;6.03;;
2257;SDS011;1136;51.574;7.706;2022-08-14T14:50:24;6.50;;;6.20;;
2257;SDS011;1136;51.574;7.706;2022-08-14T14:52:54;6.27;;;5.97;;
2257;SDS011;1136;51.574;7.706;2022-08-14T14:55:38;6.77;;;6.23;;
2257;SDS011;1136;51.574;7.706;2022-08-14T14:58:27;5.97;;;5.40;;
2257;SDS011;1136;51.574;7.706;2022-08-14T15:00:58;6.70;;;6.30;;
2257;SDS011;1136;51.574;7.706;2022-08-14T15:03:38;6.10;;;5.80;;
2257;SDS011;1136;51.574;7.706;2022-08-14T15:06:08;6.27;;;5.97;;
2257;SDS011;1136;51.574;7.706;2022-08-14T15:08:37;7.83;;;7.33;;
2257;SDS011;1136;51.574;7.706;2022-08-14T15:11:24;6.87;;;6.47;;
2257;SDS011;1136;51.574;7.706;2022-08-14T15:13:55;6.40;;;5.97;;
2257;SDS011;1136;51.574;7.706;2022-08-14T15:16:22;6.70;;;6.27;;
2257;SDS011;1136;51.574;7.706;2022-08-14T15:18:53;5.57;;;5.30;;
2257;SDS011;1136;51.574;7.706;2022-08-14T15:21:22;6.07;;;5.67;;
2257;SDS011;1136;51.574;7.706;2022-08-14T15:23:49;5.30;;;5.00;;
2257;SDS011;1136;51.574;7.706;2022-08-14T15:26:18;6.33;;;5.93;;
2257;SDS011;1136;51.574;7.706;2022-08-14T15:28:57;5.77;;;5.47;;
2257;SDS011;1136;51.574;7.706;2022-08-14T15:31:30;6.17;;;5.87;;
2257;SDS011;1136;51.574;7.706;2022-08-14T15:34:00;6.00;;;5.70;;
2257;SDS011;1136;51.574;7.706;2022-08-14T15:37:04;5.70;;;5.40;;
2257;SDS011;1136;51.574;7.706;2022-08-14T15:39:34;5.23;;;5.03;;
2257;SDS011;1136;51.574;7.706;2022-08-14T15:42:06;6.10;;;5.80;;
2257;SDS011;1136;51.574;7.706;2022-08-14T15:44:41;6.17;;;5.87;;
2257;SDS011;1136;51.574;7.706;2022-08-14T15:47:27;5.53;;;5.23;;
2257;SDS011;1136;51.574;7.706;2022-08-14T15:49:57;5.90;;;5.60;;
2257;SDS011;1136;51.574;7.706;2022-08-14T15:52:27;7.23;;;6.73;;
2257;SDS011;1136;51.574;7.706;2022-08-14T15:55:00;5.97;;;5.60;;
2257;SDS011;1136;51.574;7.706;2022-08-14T15:57:29;6.87;;;6.47;;
2257;SDS011;1136;51.574;7.706;2022-08-14T15:59:57;6.53;;;6.13;;
2257;SDS011;1136;51.574;7.706;2022-08-14T16:03:02;5.77;;;5.47;;
2257;SDS011;1136;51.574;7.706;2022-08-14T16:05:34;5.17;;;4.87;;
2257;SDS011;1136;51.574;7.706;2022-08-14T16:08:07;6.00;;;5.50;;
2257;SDS011;1136;51.574;7.706;2022-08-14T16:10:54;4.90;;;4.70;;
2257;SDS011;1136;51.574;7.706;2022-08-14T16:13:21;6.07;;;5.70;;
2257;SDS011;1136;51.574;7.706;2022-08-14T16:16:14;6.17;;;5.57;;